Waitsfield, VT (05673)

12:47 AM EST on March 03, 2015 (GMT -0500)
Norm's Weather | Change Station
CLOSE
Current Station
Personal Weather Station
Location: Waitsfield, VT
Elevation: 1150 ft
Nearby Weather Stations

Elev 1150 ft 44.16 °N, 72.82 °W | Updated 10 seconds ago

Clear
Clear
13.0 °F
Feels Like -1 °F
N
12.0
Wind Variable Wind from NNW
Gusts 20.0 mph

Today
High -- | Low -- °F
--% Chance of Precip.
Yesterday
High -- | Low -- °F
Precip. -- in
6:25 AM 5:41 PM
Waxing Gibbous, 94% visible
Pressure 30.32 in
Visibility 10.0 miles
Clouds Clear
Windchill -1 °F
Dew Point 4 °F
Humidity 62%
Rainfall 0.00 in
Snow Depth Not available.
UV 0 out of 12
Pollen .40 out of 12
Air Quality Not available.
Flu Activity Not available.
METAR KMPV 030451Z AUTO 31009KT 10SM CLR M11/M17 A3025 RMK AO2 SLP267 T11061172 410391106

More Conditions Fewer Conditions

Pressure 30.32 in
Visibility 10.0 miles
Clouds Clear
Windchill -1 °F
Dew Point 4 °F
Humidity 62%
Rainfall 0.00 in
Snow Depth Not available.
UV 0 out of 12
Pollen .40 out of 12
Air Quality Not available.
Flu Activity Not available.
METAR KMPV 030451Z AUTO 31009KT 10SM CLR M11/M17 A3025 RMK AO2 SLP267 T11061172 410391106

More Conditions Fewer Conditions

10-Day Weather Forecast

Almanac

Astronomy

Mar. 03, 2015 Rise Set
Actual Time
Civil Twilight
Nautical Twilight
Astronomical Twilight
Moon
Length of Visible Light
Length of Day
Tomorrow will be .
, % of the Moon is Illuminated

Today's Extremes

State Highs State Lows

Community

WunderPhotos

Upload Photos

1,802,068 photos uploaded!

WunderBlogs® & News

Nearby

Air Quality

  Air Quality AQ Index Pollutant
Not available.

Snow Depth

Station Depth Elevation

Earthquake Activity

City Distance Mag. Time & Date
Minimum magnitude displayed is 2.5.

Coastal Water Temperatures

Place Temperature

Nearby Weather Stations